sensor_id;sensor_type;location;lat;lon;timestamp;P1;durP1;ratioP1;P2;durP2;ratioP2
20621;SDS011;10470;42.670;23.354;2023-06-14T00:00:58;9.50;;;7.27;;
20621;SDS011;10470;42.670;23.354;2023-06-14T00:03:24;9.23;;;7.70;;
20621;SDS011;10470;42.670;23.354;2023-06-14T00:05:51;11.47;;;8.33;;
20621;SDS011;10470;42.670;23.354;2023-06-14T00:08:17;9.70;;;7.47;;
20621;SDS011;10470;42.670;23.354;2023-06-14T00:10:44;10.23;;;7.57;;
20621;SDS011;10470;42.670;23.354;2023-06-14T00:13:10;10.83;;;7.87;;
20621;SDS011;10470;42.670;23.354;2023-06-14T00:15:37;11.83;;;7.83;;
20621;SDS011;10470;42.670;23.354;2023-06-14T00:18:03;8.93;;;7.10;;
20621;SDS011;10470;42.670;23.354;2023-06-14T00:20:30;8.37;;;7.43;;
20621;SDS011;10470;42.670;23.354;2023-06-14T00:22:58;10.10;;;7.63;;
20621;SDS011;10470;42.670;23.354;2023-06-14T00:25:25;9.43;;;6.67;;
20621;SDS011;10470;42.670;23.354;2023-06-14T00:27:51;7.90;;;6.57;;
20621;SDS011;10470;42.670;23.354;2023-06-14T00:30:18;8.00;;;6.93;;
20621;SDS011;10470;42.670;23.354;2023-06-14T00:32:44;8.23;;;6.70;;
20621;SDS011;10470;42.670;23.354;2023-06-14T00:35:11;7.53;;;6.50;;
20621;SDS011;10470;42.670;23.354;2023-06-14T00:37:38;8.70;;;6.27;;
20621;SDS011;10470;42.670;23.354;2023-06-14T00:40:04;9.83;;;6.70;;
20621;SDS011;10470;42.670;23.354;2023-06-14T00:42:31;8.57;;;6.30;;
20621;SDS011;10470;42.670;23.354;2023-06-14T00:44:57;7.93;;;6.87;;
20621;SDS011;10470;42.670;23.354;2023-06-14T00:47:24;8.27;;;6.57;;
20621;SDS011;10470;42.670;23.354;2023-06-14T00:49:50;11.80;;;7.00;;
20621;SDS011;10470;42.670;23.354;2023-06-14T00:52:17;8.83;;;6.60;;
20621;SDS011;10470;42.670;23.354;2023-06-14T00:54:43;8.23;;;6.67;;
20621;SDS011;10470;42.670;23.354;2023-06-14T00:57:10;7.67;;;5.90;;
20621;SDS011;10470;42.670;23.354;2023-06-14T00:59:38;9.17;;;5.63;;
20621;SDS011;10470;42.670;23.354;2023-06-14T01:02:08;7.33;;;5.97;;
20621;SDS011;10470;42.670;23.354;2023-06-14T01:04:34;7.43;;;5.83;;
20621;SDS011;10470;42.670;23.354;2023-06-14T01:10:17;8.77;;;6.07;;
20621;SDS011;10470;42.670;23.354;2023-06-14T01:13:12;8.07;;;6.27;;
20621;SDS011;10470;42.670;23.354;2023-06-14T01:15:45;10.63;;;6.30;;
20621;SDS011;10470;42.670;23.354;2023-06-14T01:18:13;6.50;;;5.90;;
20621;SDS011;10470;42.670;23.354;2023-06-14T01:20:49;6.30;;;5.70;;
20621;SDS011;10470;42.670;23.354;2023-06-14T01:23:18;6.77;;;5.73;;
20621;SDS011;10470;42.670;23.354;2023-06-14T01:25:46;7.50;;;5.83;;
20621;SDS011;10470;42.670;23.354;2023-06-14T01:28:13;6.87;;;5.73;;
20621;SDS011;10470;42.670;23.354;2023-06-14T01:30:42;6.27;;;5.63;;
20621;SDS011;10470;42.670;23.354;2023-06-14T01:33:12;8.63;;;6.03;;
20621;SDS011;10470;42.670;23.354;2023-06-14T01:35:44;6.80;;;6.10;;
20621;SDS011;10470;42.670;23.354;2023-06-14T01:38:10;8.60;;;6.30;;
20621;SDS011;10470;42.670;23.354;2023-06-14T01:40:38;6.90;;;6.23;;
20621;SDS011;10470;42.670;23.354;2023-06-14T01:43:06;6.87;;;6.03;;
20621;SDS011;10470;42.670;23.354;2023-06-14T01:45:32;8.97;;;6.67;;
20621;SDS011;10470;42.670;23.354;2023-06-14T01:47:59;7.40;;;6.30;;
20621;SDS011;10470;42.670;23.354;2023-06-14T01:50:32;7.73;;;6.07;;
20621;SDS011;10470;42.670;23.354;2023-06-14T01:52:58;7.33;;;6.30;;
20621;SDS011;10470;42.670;23.354;2023-06-14T01:55:24;7.70;;;6.50;;
20621;SDS011;10470;42.670;23.354;2023-06-14T01:57:52;8.97;;;6.80;;
20621;SDS011;10470;42.670;23.354;2023-06-14T02:00:19;7.67;;;6.87;;
20621;SDS011;10470;42.670;23.354;2023-06-14T02:02:47;9.40;;;6.87;;
20621;SDS011;10470;42.670;23.354;2023-06-14T02:05:13;9.87;;;6.67;;
20621;SDS011;10470;42.670;23.354;2023-06-14T02:07:39;8.20;;;7.00;;
20621;SDS011;10470;42.670;23.354;2023-06-14T02:10:05;7.63;;;6.83;;
20621;SDS011;10470;42.670;23.354;2023-06-14T02:12:31;8.20;;;6.60;;
20621;SDS011;10470;42.670;23.354;2023-06-14T02:14:57;9.77;;;7.00;;
20621;SDS011;10470;42.670;23.354;2023-06-14T02:17:23;7.63;;;6.90;;
20621;SDS011;10470;42.670;23.354;2023-06-14T02:19:50;7.23;;;6.37;;
20621;SDS011;10470;42.670;23.354;2023-06-14T02:22:16;8.37;;;7.00;;
20621;SDS011;10470;42.670;23.354;2023-06-14T02:24:42;7.53;;;6.77;;
20621;SDS011;10470;42.670;23.354;2023-06-14T02:27:08;8.03;;;7.07;;
20621;SDS011;10470;42.670;23.354;2023-06-14T02:29:37;8.23;;;7.20;;
20621;SDS011;10470;42.670;23.354;2023-06-14T02:32:04;10.50;;;7.27;;
20621;SDS011;10470;42.670;23.354;2023-06-14T02:34:30;9.40;;;7.00;;
20621;SDS011;10470;42.670;23.354;2023-06-14T02:36:56;9.30;;;6.90;;
20621;SDS011;10470;42.670;23.354;2023-06-14T02:39:22;9.77;;;7.10;;
20621;SDS011;10470;42.670;23.354;2023-06-14T02:41:49;9.13;;;7.27;;
20621;SDS011;10470;42.670;23.354;2023-06-14T02:44:18;8.47;;;7.57;;
20621;SDS011;10470;42.670;23.354;2023-06-14T02:46:45;11.30;;;8.23;;
20621;SDS011;10470;42.670;23.354;2023-06-14T02:49:11;7.97;;;7.13;;
20621;SDS011;10470;42.670;23.354;2023-06-14T02:51:37;9.00;;;6.67;;
20621;SDS011;10470;42.670;23.354;2023-06-14T02:54:03;7.83;;;7.03;;
20621;SDS011;10470;42.670;23.354;2023-06-14T02:56:29;9.70;;;7.30;;
20621;SDS011;10470;42.670;23.354;2023-06-14T02:58:55;9.17;;;7.13;;
20621;SDS011;10470;42.670;23.354;2023-06-14T03:01:22;9.07;;;6.70;;
20621;SDS011;10470;42.670;23.354;2023-06-14T03:03:48;9.83;;;6.60;;
20621;SDS011;10470;42.670;23.354;2023-06-14T03:06:14;9.70;;;7.07;;
20621;SDS011;10470;42.670;23.354;2023-06-14T03:08:42;8.67;;;6.50;;
20621;SDS011;10470;42.670;23.354;2023-06-14T03:11:09;10.03;;;7.03;;
20621;SDS011;10470;42.670;23.354;2023-06-14T03:13:35;8.80;;;6.67;;
20621;SDS011;10470;42.670;23.354;2023-06-14T03:16:01;8.13;;;6.87;;
20621;SDS011;10470;42.670;23.354;2023-06-14T03:18:30;8.13;;;6.53;;
20621;SDS011;10470;42.670;23.354;2023-06-14T03:21:01;8.83;;;6.60;;
20621;SDS011;10470;42.670;23.354;2023-06-14T03:23:28;10.50;;;7.03;;
20621;SDS011;10470;42.670;23.354;2023-06-14T03:25:54;8.57;;;6.73;;
20621;SDS011;10470;42.670;23.354;2023-06-14T03:28:20;8.30;;;6.73;;
20621;SDS011;10470;42.670;23.354;2023-06-14T03:30:46;7.90;;;7.10;;
20621;SDS011;10470;42.670;23.354;2023-06-14T03:33:12;10.17;;;7.47;;
20621;SDS011;10470;42.670;23.354;2023-06-14T03:35:38;8.00;;;7.10;;
20621;SDS011;10470;42.670;23.354;2023-06-14T03:38:04;10.73;;;7.27;;
20621;SDS011;10470;42.670;23.354;2023-06-14T03:40:30;10.00;;;7.80;;
20621;SDS011;10470;42.670;23.354;2023-06-14T03:42:56;9.43;;;7.70;;
20621;SDS011;10470;42.670;23.354;2023-06-14T03:45:22;8.80;;;6.97;;
20621;SDS011;10470;42.670;23.354;2023-06-14T03:47:48;10.53;;;8.07;;
20621;SDS011;10470;42.670;23.354;2023-06-14T03:50:14;10.20;;;8.17;;
20621;SDS011;10470;42.670;23.354;2023-06-14T03:52:41;10.73;;;7.67;;
20621;SDS011;10470;42.670;23.354;2023-06-14T03:55:09;13.83;;;9.30;;
20621;SDS011;10470;42.670;23.354;2023-06-14T03:57:36;11.50;;;7.93;;
20621;SDS011;10470;42.670;23.354;2023-06-14T04:00:02;10.73;;;7.73;;
20621;SDS011;10470;42.670;23.354;2023-06-14T04:02:31;10.70;;;8.90;;
20621;SDS011;10470;42.670;23.354;2023-06-14T04:04:56;10.93;;;8.30;;
20621;SDS011;10470;42.670;23.354;2023-06-14T04:07:22;11.03;;;8.80;;
20621;SDS011;10470;42.670;23.354;2023-06-14T04:09:49;12.83;;;8.50;;
20621;SDS011;10470;42.670;23.354;2023-06-14T04:12:14;9.73;;;8.37;;
20621;SDS011;10470;42.670;23.354;2023-06-14T04:14:40;9.83;;;7.80;;
20621;SDS011;10470;42.670;23.354;2023-06-14T04:17:06;10.83;;;8.30;;
20621;SDS011;10470;42.670;23.354;2023-06-14T04:19:32;9.10;;;8.03;;
20621;SDS011;10470;42.670;23.354;2023-06-14T04:21:58;14.30;;;8.83;;
20621;SDS011;10470;42.670;23.354;2023-06-14T04:24:26;10.80;;;8.20;;
20621;SDS011;10470;42.670;23.354;2023-06-14T04:26:54;12.00;;;8.20;;
20621;SDS011;10470;42.670;23.354;2023-06-14T04:29:20;11.40;;;7.50;;
20621;SDS011;10470;42.670;23.354;2023-06-14T04:31:46;10.50;;;8.23;;
20621;SDS011;10470;42.670;23.354;2023-06-14T04:34:12;10.90;;;8.00;;
20621;SDS011;10470;42.670;23.354;2023-06-14T04:36:42;9.40;;;8.33;;
20621;SDS011;10470;42.670;23.354;2023-06-14T04:39:15;10.50;;;8.20;;
20621;SDS011;10470;42.670;23.354;2023-06-14T04:41:43;13.97;;;8.90;;
20621;SDS011;10470;42.670;23.354;2023-06-14T04:44:09;10.70;;;8.93;;
20621;SDS011;10470;42.670;23.354;2023-06-14T04:46:36;13.60;;;9.53;;
20621;SDS011;10470;42.670;23.354;2023-06-14T04:49:12;11.40;;;9.47;;
20621;SDS011;10470;42.670;23.354;2023-06-14T04:51:41;12.30;;;10.00;;
20621;SDS011;10470;42.670;23.354;2023-06-14T04:54:11;11.83;;;9.60;;
20621;SDS011;10470;42.670;23.354;2023-06-14T04:56:40;11.73;;;9.30;;
20621;SDS011;10470;42.670;23.354;2023-06-14T04:59:08;12.73;;;9.53;;
20621;SDS011;10470;42.670;23.354;2023-06-14T05:01:34;13.00;;;9.70;;
20621;SDS011;10470;42.670;23.354;2023-06-14T05:04:00;12.27;;;9.40;;
20621;SDS011;10470;42.670;23.354;2023-06-14T05:06:26;10.97;;;8.77;;
20621;SDS011;10470;42.670;23.354;2023-06-14T05:08:55;14.07;;;9.80;;
20621;SDS011;10470;42.670;23.354;2023-06-14T05:11:21;14.77;;;9.70;;
20621;SDS011;10470;42.670;23.354;2023-06-14T05:13:49;11.93;;;9.13;;
20621;SDS011;10470;42.670;23.354;2023-06-14T05:16:16;11.40;;;8.93;;
20621;SDS011;10470;42.670;23.354;2023-06-14T05:18:44;12.10;;;9.83;;
20621;SDS011;10470;42.670;23.354;2023-06-14T05:21:12;12.40;;;10.20;;
20621;SDS011;10470;42.670;23.354;2023-06-14T05:23:43;13.37;;;9.97;;
20621;SDS011;10470;42.670;23.354;2023-06-14T05:26:10;12.40;;;10.40;;
20621;SDS011;10470;42.670;23.354;2023-06-14T05:28:36;15.37;;;11.90;;
20621;SDS011;10470;42.670;23.354;2023-06-14T05:31:02;15.67;;;12.33;;
20621;SDS011;10470;42.670;23.354;2023-06-14T05:33:28;13.53;;;11.57;;
20621;SDS011;10470;42.670;23.354;2023-06-14T05:35:54;15.00;;;12.10;;
20621;SDS011;10470;42.670;23.354;2023-06-14T05:38:20;16.57;;;11.93;;
20621;SDS011;10470;42.670;23.354;2023-06-14T05:40:46;16.63;;;12.77;;
20621;SDS011;10470;42.670;23.354;2023-06-14T05:43:12;16.10;;;11.80;;
20621;SDS011;10470;42.670;23.354;2023-06-14T05:45:38;15.37;;;11.40;;
20621;SDS011;10470;42.670;23.354;2023-06-14T05:48:04;15.10;;;11.33;;
20621;SDS011;10470;42.670;23.354;2023-06-14T05:50:30;17.23;;;12.20;;
20621;SDS011;10470;42.670;23.354;2023-06-14T05:52:56;18.77;;;12.40;;
20621;SDS011;10470;42.670;23.354;2023-06-14T05:55:22;14.97;;;11.00;;
20621;SDS011;10470;42.670;23.354;2023-06-14T05:57:48;16.37;;;12.40;;
20621;SDS011;10470;42.670;23.354;2023-06-14T06:00:14;17.90;;;12.87;;
20621;SDS011;10470;42.670;23.354;2023-06-14T06:02:41;18.17;;;12.53;;
20621;SDS011;10470;42.670;23.354;2023-06-14T06:05:11;17.93;;;13.03;;
20621;SDS011;10470;42.670;23.354;2023-06-14T06:07:38;14.77;;;11.80;;
20621;SDS011;10470;42.670;23.354;2023-06-14T06:10:05;16.87;;;13.10;;
20621;SDS011;10470;42.670;23.354;2023-06-14T06:12:32;16.50;;;13.10;;
20621;SDS011;10470;42.670;23.354;2023-06-14T06:14:58;20.47;;;13.67;;
20621;SDS011;10470;42.670;23.354;2023-06-14T06:17:25;18.70;;;13.03;;
20621;SDS011;10470;42.670;23.354;2023-06-14T06:19:51;21.50;;;12.73;;
20621;SDS011;10470;42.670;23.354;2023-06-14T06:22:17;19.27;;;14.17;;
20621;SDS011;10470;42.670;23.354;2023-06-14T06:24:43;17.63;;;13.73;;
20621;SDS011;10470;42.670;23.354;2023-06-14T06:27:09;21.13;;;14.90;;
20621;SDS011;10470;42.670;23.354;2023-06-14T06:29:35;19.23;;;13.63;;
20621;SDS011;10470;42.670;23.354;2023-06-14T06:32:01;18.40;;;14.00;;
20621;SDS011;10470;42.670;23.354;2023-06-14T06:34:27;19.37;;;14.37;;
20621;SDS011;10470;42.670;23.354;2023-06-14T06:36:53;20.00;;;14.80;;
20621;SDS011;10470;42.670;23.354;2023-06-14T06:39:20;22.73;;;15.83;;
20621;SDS011;10470;42.670;23.354;2023-06-14T06:41:46;21.27;;;15.87;;
20621;SDS011;10470;42.670;23.354;2023-06-14T06:44:12;18.07;;;14.67;;
20621;SDS011;10470;42.670;23.354;2023-06-14T06:46:38;23.37;;;17.07;;
20621;SDS011;10470;42.670;23.354;2023-06-14T06:49:08;19.40;;;14.47;;
20621;SDS011;10470;42.670;23.354;2023-06-14T06:51:37;17.20;;;13.03;;
20621;SDS011;10470;42.670;23.354;2023-06-14T06:54:07;22.87;;;15.10;;
20621;SDS011;10470;42.670;23.354;2023-06-14T06:56:33;19.00;;;14.20;;
20621;SDS011;10470;42.670;23.354;2023-06-14T06:59:00;21.93;;;14.73;;
20621;SDS011;10470;42.670;23.354;2023-06-14T07:01:26;18.93;;;13.90;;
20621;SDS011;10470;42.670;23.354;2023-06-14T07:03:57;23.37;;;15.00;;
20621;SDS011;10470;42.670;23.354;2023-06-14T07:06:23;16.97;;;13.97;;
20621;SDS011;10470;42.670;23.354;2023-06-14T07:08:52;17.57;;;13.80;;
20621;SDS011;10470;42.670;23.354;2023-06-14T07:11:18;19.13;;;13.73;;
20621;SDS011;10470;42.670;23.354;2023-06-14T07:13:44;20.47;;;15.23;;
20621;SDS011;10470;42.670;23.354;2023-06-14T07:16:10;20.70;;;14.80;;
20621;SDS011;10470;42.670;23.354;2023-06-14T07:18:36;20.50;;;14.93;;
20621;SDS011;10470;42.670;23.354;2023-06-14T07:21:03;19.87;;;14.27;;
20621;SDS011;10470;42.670;23.354;2023-06-14T07:23:29;20.17;;;14.60;;
20621;SDS011;10470;42.670;23.354;2023-06-14T07:25:55;19.07;;;14.33;;
20621;SDS011;10470;42.670;23.354;2023-06-14T07:28:21;19.67;;;14.83;;
20621;SDS011;10470;42.670;23.354;2023-06-14T07:30:47;17.10;;;14.03;;
20621;SDS011;10470;42.670;23.354;2023-06-14T07:33:13;18.33;;;13.60;;
20621;SDS011;10470;42.670;23.354;2023-06-14T07:35:40;15.57;;;12.50;;
20621;SDS011;10470;42.670;23.354;2023-06-14T07:38:06;14.63;;;12.30;;
20621;SDS011;10470;42.670;23.354;2023-06-14T07:40:32;15.80;;;12.83;;
20621;SDS011;10470;42.670;23.354;2023-06-14T07:42:58;14.03;;;12.10;;
20621;SDS011;10470;42.670;23.354;2023-06-14T07:45:24;13.90;;;11.47;;
20621;SDS011;10470;42.670;23.354;2023-06-14T07:47:50;15.43;;;12.17;;
20621;SDS011;10470;42.670;23.354;2023-06-14T07:50:16;14.37;;;11.70;;
20621;SDS011;10470;42.670;23.354;2023-06-14T07:52:43;13.83;;;11.37;;
20621;SDS011;10470;42.670;23.354;2023-06-14T07:55:09;13.07;;;10.67;;
20621;SDS011;10470;42.670;23.354;2023-06-14T07:57:35;14.73;;;11.03;;
20621;SDS011;10470;42.670;23.354;2023-06-14T08:00:01;16.80;;;12.70;;
20621;SDS011;10470;42.670;23.354;2023-06-14T08:02:27;17.33;;;13.87;;
20621;SDS011;10470;42.670;23.354;2023-06-14T08:04:52;15.03;;;13.00;;
20621;SDS011;10470;42.670;23.354;2023-06-14T08:07:19;13.83;;;11.73;;
20621;SDS011;10470;42.670;23.354;2023-06-14T08:09:45;16.67;;;11.90;;
20621;SDS011;10470;42.670;23.354;2023-06-14T08:12:11;20.47;;;12.80;;
20621;SDS011;10470;42.670;23.354;2023-06-14T08:14:37;13.27;;;11.67;;
20621;SDS011;10470;42.670;23.354;2023-06-14T08:17:04;14.33;;;12.33;;
20621;SDS011;10470;42.670;23.354;2023-06-14T08:19:30;16.10;;;12.93;;
20621;SDS011;10470;42.670;23.354;2023-06-14T08:21:56;17.10;;;13.40;;
20621;SDS011;10470;42.670;23.354;2023-06-14T08:24:22;17.17;;;12.83;;
20621;SDS011;10470;42.670;23.354;2023-06-14T08:26:53;14.37;;;12.87;;
20621;SDS011;10470;42.670;23.354;2023-06-14T08:29:19;16.53;;;13.00;;
20621;SDS011;10470;42.670;23.354;2023-06-14T08:31:46;16.37;;;12.60;;
20621;SDS011;10470;42.670;23.354;2023-06-14T08:34:12;15.40;;;12.03;;
20621;SDS011;10470;42.670;23.354;2023-06-14T08:36:38;15.90;;;12.40;;
20621;SDS011;10470;42.670;23.354;2023-06-14T08:39:04;17.00;;;12.57;;
20621;SDS011;10470;42.670;23.354;2023-06-14T08:41:30;13.43;;;11.73;;
20621;SDS011;10470;42.670;23.354;2023-06-14T08:43:56;20.90;;;12.00;;
20621;SDS011;10470;42.670;23.354;2023-06-14T08:46:22;17.17;;;12.23;;
20621;SDS011;10470;42.670;23.354;2023-06-14T08:48:52;17.33;;;12.50;;
20621;SDS011;10470;42.670;23.354;2023-06-14T08:51:22;13.03;;;10.83;;
20621;SDS011;10470;42.670;23.354;2023-06-14T08:53:53;11.80;;;10.53;;
20621;SDS011;10470;42.670;23.354;2023-06-14T08:56:24;15.50;;;12.03;;
20621;SDS011;10470;42.670;23.354;2023-06-14T08:58:51;12.43;;;11.10;;
20621;SDS011;10470;42.670;23.354;2023-06-14T09:01:18;13.83;;;10.30;;
20621;SDS011;10470;42.670;23.354;2023-06-14T09:03:44;11.97;;;10.10;;
20621;SDS011;10470;42.670;23.354;2023-06-14T09:06:11;16.07;;;11.67;;
20621;SDS011;10470;42.670;23.354;2023-06-14T09:08:40;11.17;;;9.97;;
20621;SDS011;10470;42.670;23.354;2023-06-14T09:11:13;12.93;;;11.00;;
20621;SDS011;10470;42.670;23.354;2023-06-14T09:13:41;13.07;;;11.33;;
20621;SDS011;10470;42.670;23.354;2023-06-14T09:16:07;15.27;;;11.63;;
20621;SDS011;10470;42.670;23.354;2023-06-14T09:18:40;13.07;;;10.30;;
20621;SDS011;10470;42.670;23.354;2023-06-14T09:21:09;15.20;;;11.80;;
20621;SDS011;10470;42.670;23.354;2023-06-14T09:23:37;13.93;;;11.03;;
20621;SDS011;10470;42.670;23.354;2023-06-14T09:26:10;11.67;;;9.83;;
20621;SDS011;10470;42.670;23.354;2023-06-14T09:28:46;12.83;;;10.50;;
20621;SDS011;10470;42.670;23.354;2023-06-14T09:31:16;12.00;;;10.23;;
20621;SDS011;10470;42.670;23.354;2023-06-14T09:33:44;11.80;;;10.60;;
20621;SDS011;10470;42.670;23.354;2023-06-14T09:36:23;13.40;;;10.13;;
20621;SDS011;10470;42.670;23.354;2023-06-14T09:38:55;14.27;;;10.90;;
20621;SDS011;10470;42.670;23.354;2023-06-14T09:41:36;12.77;;;10.77;;
20621;SDS011;10470;42.670;23.354;2023-06-14T09:44:04;11.13;;;9.90;;
20621;SDS011;10470;42.670;23.354;2023-06-14T09:46:32;11.63;;;10.07;;
20621;SDS011;10470;42.670;23.354;2023-06-14T09:48:59;14.70;;;10.43;;
20621;SDS011;10470;42.670;23.354;2023-06-14T09:51:26;13.80;;;9.83;;
20621;SDS011;10470;42.670;23.354;2023-06-14T09:53:55;12.40;;;11.10;;
20621;SDS011;10470;42.670;23.354;2023-06-14T09:56:30;11.37;;;10.07;;
20621;SDS011;10470;42.670;23.354;2023-06-14T09:58:59;12.27;;;9.77;;
20621;SDS011;10470;42.670;23.354;2023-06-14T10:01:29;17.43;;;10.70;;
20621;SDS011;10470;42.670;23.354;2023-06-14T10:04:03;15.20;;;10.73;;
20621;SDS011;10470;42.670;23.354;2023-06-14T10:06:31;20.53;;;12.13;;
20621;SDS011;10470;42.670;23.354;2023-06-14T10:08:58;17.07;;;11.43;;
20621;SDS011;10470;42.670;23.354;2023-06-14T10:11:25;18.83;;;12.50;;
20621;SDS011;10470;42.670;23.354;2023-06-14T10:13:52;11.83;;;9.97;;
20621;SDS011;10470;42.670;23.354;2023-06-14T10:16:22;13.77;;;11.10;;
20621;SDS011;10470;42.670;23.354;2023-06-14T10:19:04;12.30;;;10.97;;
20621;SDS011;10470;42.670;23.354;2023-06-14T10:21:50;11.57;;;10.37;;
20621;SDS011;10470;42.670;23.354;2023-06-14T10:24:43;12.03;;;10.03;;
20621;SDS011;10470;42.670;23.354;2023-06-14T10:27:11;13.00;;;11.63;;
20621;SDS011;10470;42.670;23.354;2023-06-14T10:32:23;11.77;;;9.27;;
20621;SDS011;10470;42.670;23.354;2023-06-14T10:34:54;11.77;;;10.57;;
20621;SDS011;10470;42.670;23.354;2023-06-14T10:37:21;12.33;;;10.13;;
20621;SDS011;10470;42.670;23.354;2023-06-14T10:39:47;12.97;;;9.70;;
20621;SDS011;10470;42.670;23.354;2023-06-14T10:42:14;11.73;;;8.87;;
20621;SDS011;10470;42.670;23.354;2023-06-14T10:47:21;12.00;;;9.50;;
20621;SDS011;10470;42.670;23.354;2023-06-14T10:49:51;11.90;;;9.60;;
20621;SDS011;10470;42.670;23.354;2023-06-14T10:52:20;10.43;;;9.33;;
20621;SDS011;10470;42.670;23.354;2023-06-14T10:55:22;15.93;;;10.03;;
20621;SDS011;10470;42.670;23.354;2023-06-14T11:00:18;11.10;;;10.07;;
20621;SDS011;10470;42.670;23.354;2023-06-14T11:05:48;8.57;;;7.80;;
20621;SDS011;10470;42.670;23.354;2023-06-14T11:08:27;11.53;;;7.73;;
20621;SDS011;10470;42.670;23.354;2023-06-14T11:10:54;8.53;;;7.63;;
20621;SDS011;10470;42.670;23.354;2023-06-14T11:13:27;8.40;;;7.60;;
20621;SDS011;10470;42.670;23.354;2023-06-14T11:15:54;9.50;;;7.73;;
20621;SDS011;10470;42.670;23.354;2023-06-14T11:18:22;9.90;;;8.40;;
20621;SDS011;10470;42.670;23.354;2023-06-14T11:20:50;8.97;;;8.07;;
20621;SDS011;10470;42.670;23.354;2023-06-14T11:23:16;12.67;;;8.37;;
20621;SDS011;10470;42.670;23.354;2023-06-14T11:25:42;9.10;;;8.20;;
20621;SDS011;10470;42.670;23.354;2023-06-14T11:28:08;9.00;;;8.10;;
20621;SDS011;10470;42.670;23.354;2023-06-14T11:30:34;9.70;;;8.17;;
20621;SDS011;10470;42.670;23.354;2023-06-14T11:33:00;8.27;;;7.47;;
20621;SDS011;10470;42.670;23.354;2023-06-14T11:35:26;8.73;;;7.33;;
20621;SDS011;10470;42.670;23.354;2023-06-14T11:37:53;8.90;;;8.00;;
20621;SDS011;10470;42.670;23.354;2023-06-14T11:40:23;8.43;;;7.53;;
20621;SDS011;10470;42.670;23.354;2023-06-14T11:42:49;8.80;;;7.43;;
20621;SDS011;10470;42.670;23.354;2023-06-14T11:45:23;9.07;;;8.13;;
20621;SDS011;10470;42.670;23.354;2023-06-14T11:47:50;9.63;;;8.00;;
20621;SDS011;10470;42.670;23.354;2023-06-14T11:50:16;7.97;;;7.27;;
20621;SDS011;10470;42.670;23.354;2023-06-14T11:52:42;8.67;;;7.83;;
20621;SDS011;10470;42.670;23.354;2023-06-14T11:55:08;8.57;;;7.77;;
20621;SDS011;10470;42.670;23.354;2023-06-14T11:57:35;8.30;;;7.47;;
20621;SDS011;10470;42.670;23.354;2023-06-14T12:00:04;10.00;;;7.83;;
20621;SDS011;10470;42.670;23.354;2023-06-14T12:02:38;9.00;;;8.07;;
20621;SDS011;10470;42.670;23.354;2023-06-14T12:05:06;9.03;;;8.23;;
20621;SDS011;10470;42.670;23.354;2023-06-14T12:07:38;7.30;;;6.60;;
20621;SDS011;10470;42.670;23.354;2023-06-14T12:10:08;7.27;;;6.57;;
20621;SDS011;10470;42.670;23.354;2023-06-14T12:12:37;7.20;;;6.60;;
20621;SDS011;10470;42.670;23.354;2023-06-14T12:15:04;6.73;;;6.23;;
20621;SDS011;10470;42.670;23.354;2023-06-14T12:17:32;6.90;;;6.30;;
20621;SDS011;10470;42.670;23.354;2023-06-14T12:20:05;6.80;;;6.10;;
20621;SDS011;10470;42.670;23.354;2023-06-14T12:22:37;7.60;;;6.90;;
20621;SDS011;10470;42.670;23.354;2023-06-14T12:25:04;7.73;;;6.90;;
20621;SDS011;10470;42.670;23.354;2023-06-14T12:27:31;6.83;;;6.27;;
20621;SDS011;10470;42.670;23.354;2023-06-14T12:30:00;7.17;;;6.57;;
20621;SDS011;10470;42.670;23.354;2023-06-14T12:32:28;7.03;;;6.40;;
20621;SDS011;10470;42.670;23.354;2023-06-14T12:34:55;7.13;;;6.50;;
20621;SDS011;10470;42.670;23.354;2023-06-14T12:37:21;7.60;;;6.13;;
20621;SDS011;10470;42.670;23.354;2023-06-14T12:39:47;6.67;;;6.07;;
20621;SDS011;10470;42.670;23.354;2023-06-14T12:42:13;6.80;;;6.20;;
20621;SDS011;10470;42.670;23.354;2023-06-14T12:44:39;6.90;;;6.20;;
20621;SDS011;10470;42.670;23.354;2023-06-14T12:47:09;6.90;;;5.87;;
20621;SDS011;10470;42.670;23.354;2023-06-14T12:49:35;6.77;;;6.13;;
20621;SDS011;10470;42.670;23.354;2023-06-14T12:52:01;8.77;;;6.50;;
20621;SDS011;10470;42.670;23.354;2023-06-14T12:54:27;8.80;;;6.07;;
20621;SDS011;10470;42.670;23.354;2023-06-14T12:56:53;8.37;;;5.90;;
20621;SDS011;10470;42.670;23.354;2023-06-14T12:59:20;6.70;;;6.10;;
20621;SDS011;10470;42.670;23.354;2023-06-14T13:01:46;11.47;;;10.00;;
20621;SDS011;10470;42.670;23.354;2023-06-14T13:04:15;9.10;;;7.80;;
20621;SDS011;10470;42.670;23.354;2023-06-14T13:06:41;6.97;;;5.90;;
20621;SDS011;10470;42.670;23.354;2023-06-14T13:09:07;6.73;;;6.00;;
20621;SDS011;10470;42.670;23.354;2023-06-14T13:11:33;5.97;;;5.47;;
20621;SDS011;10470;42.670;23.354;2023-06-14T13:13:59;6.30;;;5.60;;
20621;SDS011;10470;42.670;23.354;2023-06-14T13:16:25;7.87;;;6.40;;
20621;SDS011;10470;42.670;23.354;2023-06-14T13:18:51;7.70;;;6.40;;
20621;SDS011;10470;42.670;23.354;2023-06-14T13:21:17;7.97;;;7.20;;
20621;SDS011;10470;42.670;23.354;2023-06-14T13:23:43;8.43;;;7.40;;
20621;SDS011;10470;42.670;23.354;2023-06-14T13:26:09;7.17;;;6.40;;
20621;SDS011;10470;42.670;23.354;2023-06-14T13:28:35;8.87;;;6.80;;
20621;SDS011;10470;42.670;23.354;2023-06-14T13:31:01;10.47;;;7.37;;
20621;SDS011;10470;42.670;23.354;2023-06-14T13:33:27;7.93;;;6.87;;
20621;SDS011;10470;42.670;23.354;2023-06-14T13:35:53;8.37;;;7.57;;
20621;SDS011;10470;42.670;23.354;2023-06-14T13:38:19;11.20;;;7.30;;
20621;SDS011;10470;42.670;23.354;2023-06-14T13:40:45;10.00;;;7.23;;
20621;SDS011;10470;42.670;23.354;2023-06-14T13:43:11;11.00;;;7.80;;
20621;SDS011;10470;42.670;23.354;2023-06-14T13:45:37;10.43;;;7.23;;
20621;SDS011;10470;42.670;23.354;2023-06-14T13:48:03;8.97;;;7.57;;
20621;SDS011;10470;42.670;23.354;2023-06-14T13:50:29;9.50;;;7.97;;
20621;SDS011;10470;42.670;23.354;2023-06-14T13:52:55;9.67;;;6.83;;
20621;SDS011;10470;42.670;23.354;2023-06-14T13:55:21;8.60;;;7.57;;
20621;SDS011;10470;42.670;23.354;2023-06-14T13:57:48;9.47;;;7.57;;
20621;SDS011;10470;42.670;23.354;2023-06-14T14:00:14;10.63;;;8.33;;
20621;SDS011;10470;42.670;23.354;2023-06-14T14:02:40;8.13;;;7.33;;
20621;SDS011;10470;42.670;23.354;2023-06-14T14:05:06;8.10;;;7.30;;
20621;SDS011;10470;42.670;23.354;2023-06-14T14:07:32;7.63;;;6.83;;
20621;SDS011;10470;42.670;23.354;2023-06-14T14:09:58;7.90;;;7.10;;
20621;SDS011;10470;42.670;23.354;2023-06-14T14:12:24;8.97;;;6.93;;
20621;SDS011;10470;42.670;23.354;2023-06-14T14:14:50;8.07;;;7.27;;
20621;SDS011;10470;42.670;23.354;2023-06-14T14:17:16;8.07;;;7.10;;
20621;SDS011;10470;42.670;23.354;2023-06-14T14:19:43;7.90;;;7.00;;
20621;SDS011;10470;42.670;23.354;2023-06-14T14:22:09;7.93;;;7.13;;
20621;SDS011;10470;42.670;23.354;2023-06-14T14:24:35;8.67;;;7.13;;
20621;SDS011;10470;42.670;23.354;2023-06-14T14:27:01;8.83;;;7.70;;
20621;SDS011;10470;42.670;23.354;2023-06-14T14:29:27;7.80;;;7.00;;
20621;SDS011;10470;42.670;23.354;2023-06-14T14:31:56;7.97;;;6.60;;
20621;SDS011;10470;42.670;23.354;2023-06-14T14:34:22;7.97;;;7.13;;
20621;SDS011;10470;42.670;23.354;2023-06-14T14:36:49;9.83;;;6.73;;
20621;SDS011;10470;42.670;23.354;2023-06-14T14:39:15;8.00;;;6.97;;